Time,TemperatureF,DewpointF,PressureIn,WindDirection,WindDirectionDegrees,WindSpeedMPH,WindSpeedGustMPH,Humidity,HourlyPrecipIn,Conditions,Clouds,dailyrainin,SoftwareType,DateUTC
2013-11-25 00:01:00,20.5,14.4,30.67,ENE,71,0.0,0.0,77,0.00,,,0.00,Wunderground v.1.15,2013-11-25 05:01:00,
2013-11-25 00:02:00,20.5,14.4,30.67,ENE,71,0.0,0.0,77,0.00,,,0.00,Wunderground v.1.15,2013-11-25 05:02:00,
2013-11-25 00:03:00,20.5,14.4,30.67,ENE,71,0.0,0.0,77,0.00,,,0.00,Wunderground v.1.15,2013-11-25 05:03:00,
2013-11-25 00:04:00,20.5,14.1,30.66,ENE,71,0.0,0.0,76,0.00,,,0.00,Wunderground v.1.15,2013-11-25 05:04:00,
2013-11-25 00:06:00,20.5,14.1,30.67,ENE,71,0.0,0.0,76,0.00,,,0.00,Wunderground v.1.15,2013-11-25 05:06:00,
2013-11-25 00:09:00,20.4,14.3,30.67,ENE,71,0.0,0.0,77,0.00,,,0.00,Wunderground v.1.15,2013-11-25 05:09:00,
2013-11-25 00:14:00,20.5,14.4,30.66,ENE,71,0.0,0.0,77,0.00,,,0.00,Wunderground v.1.15,2013-11-25 05:14:00,
2013-11-25 00:19:00,20.5,14.4,30.67,ENE,71,0.0,0.0,77,0.00,,,0.00,Wunderground v.1.15,2013-11-25 05:19:00,
2013-11-25 00:24:00,20.4,14.3,30.67,ENE,71,0.0,0.0,77,0.00,,,0.00,Wunderground v.1.15,2013-11-25 05:24:00,
2013-11-25 00:30:00,20.4,14.0,30.67,ENE,71,0.0,0.0,76,0.00,,,0.00,Wunderground v.1.15,2013-11-25 05:30:00,
2013-11-25 00:35:00,20.3,13.9,30.67,ENE,71,0.0,0.0,76,0.00,,,0.00,Wunderground v.1.15,2013-11-25 05:35:00,
2013-11-25 00:40:00,20.3,14.2,30.67,ENE,71,0.0,0.0,77,0.00,,,0.00,Wunderground v.1.15,2013-11-25 05:40:00,
2013-11-25 00:45:00,20.2,14.1,30.67,ENE,71,0.0,0.0,77,0.00,,,0.00,Wunderground v.1.15,2013-11-25 05:45:00,
2013-11-25 00:50:00,20.2,14.4,30.67,ENE,71,0.0,0.0,78,0.00,,,0.00,Wunderground v.1.15,2013-11-25 05:50:00,
2013-11-25 00:55:00,20.2,14.4,30.66,ENE,71,0.0,0.0,78,0.00,,,0.00,Wunderground v.1.15,2013-11-25 05:55:00,
2013-11-25 01:01:00,20.1,16.3,30.66,ENE,71,0.0,0.0,85,0.00,,,0.00,Wunderground v.1.15,2013-11-25 06:01:00,
2013-11-25 01:06:00,20.1,14.6,30.66,ENE,71,0.0,0.0,79,0.00,,,0.00,Wunderground v.1.15,2013-11-25 06:06:00,
2013-11-25 01:12:00,20.0,14.5,30.66,ENE,71,0.0,0.0,79,0.00,,,0.00,Wunderground v.1.15,2013-11-25 06:12:00,
2013-11-25 01:17:00,19.8,14.6,30.65,ENE,71,0.0,0.0,80,0.00,,,0.00,Wunderground v.1.15,2013-11-25 06:17:00,
2013-11-25 01:22:00,19.7,14.5,30.66,ENE,71,0.0,0.0,80,0.00,,,0.00,Wunderground v.1.15,2013-11-25 06:22:00,
2013-11-25 01:27:00,19.6,14.7,30.66,ENE,71,0.0,0.0,81,0.00,,,0.00,Wunderground v.1.15,2013-11-25 06:27:00,
2013-11-25 01:33:00,19.5,14.9,30.67,ENE,71,0.0,0.0,82,0.00,,,0.00,Wunderground v.1.15,2013-11-25 06:33:00,
2013-11-25 01:38:00,19.4,15.1,30.67,ENE,71,0.0,0.0,83,0.00,,,0.00,Wunderground v.1.15,2013-11-25 06:38:00,
2013-11-25 01:43:00,19.1,14.8,30.67,ENE,71,0.0,0.0,83,0.00,,,0.00,Wunderground v.1.15,2013-11-25 06:43:00,
2013-11-25 01:48:00,19.0,14.7,30.67,ENE,71,0.0,0.0,83,0.00,,,0.00,Wunderground v.1.15,2013-11-25 06:48:00,
2013-11-25 01:53:00,18.9,14.6,30.67,ENE,71,0.0,0.0,83,0.00,,,0.00,Wunderground v.1.15,2013-11-25 06:53:00,
2013-11-25 01:59:00,18.8,14.5,30.67,ENE,71,0.0,0.0,83,0.00,,,0.00,Wunderground v.1.15,2013-11-25 06:59:00,
2013-11-25 02:04:00,18.7,14.7,30.67,ENE,71,0.0,0.0,84,0.00,,,0.00,Wunderground v.1.15,2013-11-25 07:04:00,
2013-11-25 02:09:00,18.6,14.8,30.67,ENE,71,0.0,0.0,85,0.00,,,0.00,Wunderground v.1.15,2013-11-25 07:09:00,
2013-11-25 02:14:00,18.5,14.7,30.67,ENE,71,0.0,0.0,85,0.00,,,0.00,Wunderground v.1.15,2013-11-25 07:14:00,
2013-11-25 02:19:00,18.4,14.6,30.67,ENE,71,0.0,0.0,85,0.00,,,0.00,Wunderground v.1.15,2013-11-25 07:19:00,
2013-11-25 02:24:00,18.4,14.9,30.67,ENE,71,0.0,0.0,86,0.00,,,0.00,Wunderground v.1.15,2013-11-25 07:24:00,
2013-11-25 02:29:00,18.3,14.8,30.67,ENE,71,0.0,0.0,86,0.00,,,0.00,Wunderground v.1.15,2013-11-25 07:29:00,
2013-11-25 02:34:00,18.3,14.8,30.67,ENE,71,0.0,0.0,86,0.00,,,0.00,Wunderground v.1.15,2013-11-25 07:34:00,
2013-11-25 02:39:00,18.2,14.7,30.67,ENE,71,0.0,0.0,86,0.00,,,0.00,Wunderground v.1.15,2013-11-25 07:39:00,
2013-11-25 02:44:00,18.2,14.7,30.67,ENE,71,0.0,0.0,86,0.00,,,0.00,Wunderground v.1.15,2013-11-25 07:44:00,
2013-11-25 02:49:00,18.2,14.7,30.67,ENE,71,0.0,0.0,86,0.00,,,0.00,Wunderground v.1.15,2013-11-25 07:49:00,
2013-11-25 02:54:00,18.2,14.7,30.66,ENE,71,0.0,0.0,86,0.00,,,0.00,Wunderground v.1.15,2013-11-25 07:54:00,
2013-11-25 02:59:00,18.3,15.1,30.67,ENE,71,0.0,0.0,87,0.00,,,0.00,Wunderground v.1.15,2013-11-25 07:59:00,
2013-11-25 03:04:00,18.3,14.8,30.67,ENE,71,0.0,0.0,86,0.00,,,0.00,Wunderground v.1.15,2013-11-25 08:04:00,
2013-11-25 03:09:00,18.4,14.9,30.66,ENE,71,0.0,0.0,86,0.00,,,0.00,Wunderground v.1.15,2013-11-25 08:09:00,
2013-11-25 03:14:00,18.5,15.0,30.66,ENE,71,0.0,0.0,86,0.00,,,0.00,Wunderground v.1.15,2013-11-25 08:14:00,
2013-11-25 03:19:00,18.5,14.7,30.66,ENE,71,0.0,0.0,85,0.00,,,0.00,Wunderground v.1.15,2013-11-25 08:19:00,
2013-11-25 03:24:00,18.6,15.4,30.66,ENE,71,0.0,0.0,87,0.00,,,0.00,Wunderground v.1.15,2013-11-25 08:24:00,
2013-11-25 03:29:00,18.6,15.1,30.66,ENE,71,0.0,0.0,86,0.00,,,0.00,Wunderground v.1.15,2013-11-25 08:29:00,
2013-11-25 03:35:00,18.6,15.4,30.66,ENE,71,0.0,0.0,87,0.00,,,0.00,Wunderground v.1.15,2013-11-25 08:35:00,
2013-11-25 03:40:00,18.6,15.1,30.66,ENE,71,0.0,0.0,86,0.00,,,0.00,Wunderground v.1.15,2013-11-25 08:40:00,
2013-11-25 03:45:00,18.5,15.3,30.67,ENE,71,0.0,0.0,87,0.00,,,0.00,Wunderground v.1.15,2013-11-25 08:45:00,
2013-11-25 03:50:00,18.5,15.0,30.67,ENE,71,0.0,0.0,86,0.00,,,0.00,Wunderground v.1.15,2013-11-25 08:50:00,
2013-11-25 03:55:00,18.4,15.2,30.67,ENE,71,0.0,0.0,87,0.00,,,0.00,Wunderground v.1.15,2013-11-25 08:55:00,
2013-11-25 04:00:00,18.4,15.2,30.67,ENE,71,0.0,0.0,87,0.00,,,0.00,Wunderground v.1.15,2013-11-25 09:00:00,
2013-11-25 04:05:00,18.3,15.1,30.67,ENE,71,0.0,0.0,87,0.00,,,0.00,Wunderground v.1.15,2013-11-25 09:05:00,
2013-11-25 04:10:00,18.3,15.1,30.67,ENE,71,0.0,0.0,87,0.00,,,0.00,Wunderground v.1.15,2013-11-25 09:10:00,
2013-11-25 04:15:00,18.3,15.1,30.67,ENE,71,0.0,0.0,87,0.00,,,0.00,Wunderground v.1.15,2013-11-25 09:15:00,
2013-11-25 04:20:00,18.2,15.0,30.66,ENE,71,0.0,0.0,87,0.00,,,0.00,Wunderground v.1.15,2013-11-25 09:20:00,
2013-11-25 04:25:00,18.2,15.0,30.67,ENE,71,0.0,0.0,87,0.00,,,0.00,Wunderground v.1.15,2013-11-25 09:25:00,
2013-11-25 04:30:00,18.2,15.2,30.67,ENE,71,0.0,0.0,88,0.00,,,0.00,Wunderground v.1.15,2013-11-25 09:30:00,
2013-11-25 04:35:00,18.2,15.2,30.67,ENE,71,0.0,0.0,88,0.00,,,0.00,Wunderground v.1.15,2013-11-25 09:35:00,
2013-11-25 04:40:00,18.1,15.1,30.67,ENE,71,0.0,0.0,88,0.00,,,0.00,Wunderground v.1.15,2013-11-25 09:40:00,
2013-11-25 04:45:00,18.1,15.1,30.67,ENE,71,0.0,0.0,88,0.00,,,0.00,Wunderground v.1.15,2013-11-25 09:45:00,
2013-11-25 04:50:00,18.1,15.1,30.67,ENE,71,0.0,0.0,88,0.00,,,0.00,Wunderground v.1.15,2013-11-25 09:50:00,
2013-11-25 04:55:00,18.1,14.9,30.67,ENE,71,0.0,0.0,87,0.00,,,0.00,Wunderground v.1.15,2013-11-25 09:55:00,
2013-11-25 05:00:00,18.0,15.0,30.67,ENE,71,0.0,0.0,88,0.00,,,0.00,Wunderground v.1.15,2013-11-25 10:00:00,
2013-11-25 05:05:00,18.0,15.0,30.67,ENE,71,0.0,0.0,88,0.00,,,0.00,Wunderground v.1.15,2013-11-25 10:05:00,
2013-11-25 05:10:00,18.1,15.4,30.68,ENE,71,0.0,0.0,89,0.00,,,0.00,Wunderground v.1.15,2013-11-25 10:10:00,
2013-11-25 05:15:00,18.1,15.1,30.68,ENE,71,0.0,0.0,88,0.00,,,0.00,Wunderground v.1.15,2013-11-25 10:15:00,
2013-11-25 05:20:00,18.0,15.3,30.67,ENE,71,0.0,0.0,89,0.00,,,0.00,Wunderground v.1.15,2013-11-25 10:20:00,
2013-11-25 05:25:00,18.0,15.0,30.67,ENE,71,0.0,0.0,88,0.00,,,0.00,Wunderground v.1.15,2013-11-25 10:25:00,
2013-11-25 05:30:00,18.0,15.0,30.67,ENE,71,0.0,0.0,88,0.00,,,0.00,Wunderground v.1.15,2013-11-25 10:30:00,
2013-11-25 05:35:00,18.0,15.0,30.67,ENE,71,0.0,0.0,88,0.00,,,0.00,Wunderground v.1.15,2013-11-25 10:35:00,
2013-11-25 05:40:00,18.0,15.0,30.65,ENE,71,0.0,0.0,88,0.00,,,0.00,Wunderground v.1.15,2013-11-25 10:40:00,
2013-11-25 05:45:00,18.0,14.8,30.66,ENE,71,0.0,0.0,87,0.00,,,0.00,Wunderground v.1.15,2013-11-25 10:45:00,
2013-11-25 05:50:00,18.1,14.9,30.66,ENE,71,0.0,0.0,87,0.00,,,0.00,Wunderground v.1.15,2013-11-25 10:50:00,
2013-11-25 05:55:00,18.2,15.0,30.66,ENE,71,0.0,0.0,87,0.00,,,0.00,Wunderground v.1.15,2013-11-25 10:55:00,
2013-11-25 06:00:00,18.3,15.1,30.67,ENE,71,0.0,0.0,87,0.00,,,0.00,Wunderground v.1.15,2013-11-25 11:00:00,
2013-11-25 06:05:00,18.3,14.8,30.66,ENE,71,0.0,0.0,86,0.00,,,0.00,Wunderground v.1.15,2013-11-25 11:05:00,
2013-11-25 06:10:00,18.4,14.6,30.66,ENE,71,0.0,0.0,85,0.00,,,0.00,Wunderground v.1.15,2013-11-25 11:10:00,
2013-11-25 06:15:00,18.6,14.8,30.66,ENE,71,0.0,0.0,85,0.00,,,0.00,Wunderground v.1.15,2013-11-25 11:15:00,
2013-11-25 06:20:00,18.7,14.9,30.66,ENE,71,0.0,0.0,85,0.00,,,0.00,Wunderground v.1.15,2013-11-25 11:20:00,
2013-11-25 06:25:00,18.8,14.8,30.66,ENE,71,0.0,0.0,84,0.00,,,0.00,Wunderground v.1.15,2013-11-25 11:25:00,
2013-11-25 06:30:00,18.9,14.6,30.66,ENE,71,0.0,0.0,83,0.00,,,0.00,Wunderground v.1.15,2013-11-25 11:30:00,
2013-11-25 06:35:00,19.0,14.4,30.66,ENE,71,0.0,0.0,82,0.00,,,0.00,Wunderground v.1.15,2013-11-25 11:35:00,
2013-11-25 06:41:00,19.2,15.7,30.66,ENE,71,0.0,0.0,86,0.00,,,0.00,Wunderground v.1.15,2013-11-25 11:41:00,
2013-11-25 06:46:00,19.3,15.5,30.66,ENE,71,0.0,0.0,85,0.00,,,0.00,Wunderground v.1.15,2013-11-25 11:46:00,
2013-11-25 06:51:00,19.5,15.7,30.66,ENE,71,0.0,0.0,85,0.00,,,0.00,Wunderground v.1.15,2013-11-25 11:51:00,
2013-11-25 06:56:00,19.5,15.7,30.66,ENE,71,0.0,0.0,85,0.00,,,0.00,Wunderground v.1.15,2013-11-25 11:56:00,
2013-11-25 07:01:00,19.5,15.7,30.66,ENE,71,0.0,0.0,85,0.00,,,0.00,Wunderground v.1.15,2013-11-25 12:01:00,
2013-11-25 07:06:00,19.5,15.5,30.67,ENE,71,0.0,0.0,84,0.00,,,0.00,Wunderground v.1.15,2013-11-25 12:06:00,
2013-11-25 07:11:00,19.6,15.6,30.66,ENE,71,0.0,0.0,84,0.00,,,0.00,Wunderground v.1.15,2013-11-25 12:11:00,
2013-11-25 07:16:00,19.7,15.9,30.66,ENE,71,0.0,0.0,85,0.00,,,0.00,Wunderground v.1.15,2013-11-25 12:16:00,
2013-11-25 07:21:00,19.8,16.3,30.66,ENE,71,0.0,0.0,86,0.00,,,0.00,Wunderground v.1.15,2013-11-25 12:21:00,
2013-11-25 07:26:00,19.8,16.3,30.66,ENE,71,0.0,0.0,86,0.00,,,0.00,Wunderground v.1.15,2013-11-25 12:26:00,
2013-11-25 07:31:00,19.9,16.1,30.67,ENE,71,0.0,0.0,85,0.00,,,0.00,Wunderground v.1.15,2013-11-25 12:31:00,
2013-11-25 07:36:00,19.9,16.4,30.66,ENE,71,0.0,0.0,86,0.00,,,0.00,Wunderground v.1.15,2013-11-25 12:36:00,
2013-11-25 07:41:00,20.0,15.9,30.67,ENE,71,0.0,0.0,84,0.00,,,0.00,Wunderground v.1.15,2013-11-25 12:41:00,
2013-11-25 07:46:00,20.1,15.8,30.66,ENE,71,0.0,0.0,83,0.00,,,0.00,Wunderground v.1.15,2013-11-25 12:46:00,
2013-11-25 07:51:00,20.3,15.7,30.67,ENE,71,0.0,0.0,82,0.00,,,0.00,Wunderground v.1.15,2013-11-25 12:51:00,
2013-11-25 07:56:00,20.4,16.1,30.67,ENE,71,0.0,0.0,83,0.00,,,0.00,Wunderground v.1.15,2013-11-25 12:56:00,
2013-11-25 08:01:00,20.5,16.2,30.67,ENE,71,0.0,0.0,83,0.00,,,0.00,Wunderground v.1.15,2013-11-25 13:01:00,
2013-11-25 08:06:00,20.6,16.3,30.67,ENE,71,0.0,0.0,83,0.00,,,0.00,Wunderground v.1.15,2013-11-25 13:06:00,
2013-11-25 08:11:00,20.8,15.9,30.68,ENE,71,0.0,0.0,81,0.00,,,0.00,Wunderground v.1.15,2013-11-25 13:11:00,
2013-11-25 08:16:00,21.0,15.5,30.68,ENE,71,0.0,1.0,79,0.00,,,0.00,Wunderground v.1.15,2013-11-25 13:16:00,
2013-11-25 08:21:00,21.4,13.8,30.68,SE,133,0.0,1.0,72,0.00,,,0.00,Wunderground v.1.15,2013-11-25 13:21:00,
2013-11-25 08:26:00,21.9,13.0,30.68,SSE,148,0.0,1.0,68,0.00,,,0.00,Wunderground v.1.15,2013-11-25 13:26:00,
2013-11-25 08:31:00,22.4,12.8,30.68,South,176,0.0,1.0,66,0.00,,,0.00,Wunderground v.1.15,2013-11-25 13:31:00,
2013-11-25 08:36:00,23.1,12.4,30.69,South,175,1.0,1.0,63,0.00,,,0.00,Wunderground v.1.15,2013-11-25 13:36:00,
2013-11-25 08:41:00,23.8,11.5,30.69,South,173,1.0,3.0,59,0.00,,,0.00,Wunderground v.1.15,2013-11-25 13:41:00,
2013-11-25 08:46:00,24.4,11.7,30.69,SSE,165,0.0,4.0,58,0.00,,,0.00,Wunderground v.1.15,2013-11-25 13:46:00,
2013-11-25 08:51:00,24.9,12.6,30.69,SSE,157,0.0,1.0,59,0.00,,,0.00,Wunderground v.1.15,2013-11-25 13:51:00,
2013-11-25 08:56:00,25.3,11.8,30.69,South,179,5.0,9.0,56,0.00,,,0.00,Wunderground v.1.15,2013-11-25 13:56:00,
2013-11-25 09:01:00,25.6,12.1,30.69,SSE,157,1.0,4.0,56,0.00,,,0.00,Wunderground v.1.15,2013-11-25 14:01:00,
2013-11-25 09:06:00,25.8,12.2,30.69,SSE,167,0.0,4.0,56,0.00,,,0.00,Wunderground v.1.15,2013-11-25 14:06:00,
2013-11-25 09:11:00,26.1,12.9,30.69,SSE,165,2.0,2.0,57,0.00,,,0.00,Wunderground v.1.15,2013-11-25 14:11:00,
2013-11-25 09:16:00,26.5,12.9,30.69,SE,138,0.0,2.0,56,0.00,,,0.00,Wunderground v.1.15,2013-11-25 14:16:00,
2013-11-25 09:21:00,26.7,12.7,30.68,SSE,156,0.0,0.0,55,0.00,,,0.00,Wunderground v.1.15,2013-11-25 14:21:00,
2013-11-25 09:26:00,26.9,12.9,30.68,South,180,2.0,4.0,55,0.00,,,0.00,Wunderground v.1.15,2013-11-25 14:26:00,
2013-11-25 09:31:00,27.0,12.5,30.68,SSW,194,1.0,1.0,54,0.00,,,0.00,Wunderground v.1.15,2013-11-25 14:31:00,
2013-11-25 09:36:00,27.1,12.6,30.68,SSW,208,0.0,1.0,54,0.00,,,0.00,Wunderground v.1.15,2013-11-25 14:36:00,
2013-11-25 09:41:00,27.3,12.8,30.68,South,184,0.0,2.0,54,0.00,,,0.00,Wunderground v.1.15,2013-11-25 14:41:00,
2013-11-25 09:46:00,27.4,12.9,30.68,SSE,159,1.0,2.0,54,0.00,,,0.00,Wunderground v.1.15,2013-11-25 14:46:00,
2013-11-25 09:51:00,27.6,12.7,30.68,SSE,166,0.0,1.0,53,0.00,,,0.00,Wunderground v.1.15,2013-11-25 14:51:00,
2013-11-25 09:56:00,27.6,12.2,30.68,South,174,1.0,3.0,52,0.00,,,0.00,Wunderground v.1.15,2013-11-25 14:56:00,
2013-11-25 10:01:00,27.7,12.8,30.69,South,179,0.0,1.0,53,0.00,,,0.00,Wunderground v.1.15,2013-11-25 15:01:00,
2013-11-25 10:06:00,27.8,13.3,30.69,South,179,0.0,1.0,54,0.00,,,0.00,Wunderground v.1.15,2013-11-25 15:06:00,
2013-11-25 10:11:00,28.0,13.5,30.69,South,179,0.0,1.0,54,0.00,,,0.00,Wunderground v.1.15,2013-11-25 15:11:00,
2013-11-25 10:16:00,28.2,13.2,30.68,ESE,106,0.0,3.0,53,0.00,,,0.00,Wunderground v.1.15,2013-11-25 15:16:00,
2013-11-25 10:21:00,28.3,13.8,30.68,South,178,0.0,0.0,54,0.00,,,0.00,Wunderground v.1.15,2013-11-25 15:21:00,
2013-11-25 10:27:00,28.5,13.5,30.67,South,177,0.0,3.0,53,0.00,,,0.00,Wunderground v.1.15,2013-11-25 15:27:00,
2013-11-25 10:32:00,28.7,14.1,30.67,South,177,0.0,1.0,54,0.00,,,0.00,Wunderground v.1.15,2013-11-25 15:32:00,
2013-11-25 10:37:00,29.0,13.6,30.67,South,175,0.0,2.0,52,0.00,,,0.00,Wunderground v.1.15,2013-11-25 15:37:00,
2013-11-25 10:42:00,29.2,14.2,30.67,South,173,0.0,3.0,53,0.00,,,0.00,Wunderground v.1.15,2013-11-25 15:42:00,
2013-11-25 10:47:00,29.6,14.1,30.67,ESE,106,0.0,3.0,52,0.00,,,0.00,Wunderground v.1.15,2013-11-25 15:47:00,
2013-11-25 10:52:00,29.9,14.4,30.67,South,173,1.0,4.0,52,0.00,,,0.00,Wunderground v.1.15,2013-11-25 15:52:00,
2013-11-25 10:57:00,30.1,14.6,30.67,South,173,1.0,7.0,52,0.00,,,0.00,Wunderground v.1.15,2013-11-25 15:57:00,
2013-11-25 11:02:00,30.3,15.2,30.66,South,179,0.0,1.0,53,0.00,,,0.00,Wunderground v.1.15,2013-11-25 16:02:00,
2013-11-25 11:07:00,30.6,15.0,30.66,South,183,1.0,1.0,52,0.00,,,0.00,Wunderground v.1.15,2013-11-25 16:07:00,
2013-11-25 11:12:00,31.0,15.8,30.65,NNE,33,0.0,1.0,53,0.00,,,0.00,Wunderground v.1.15,2013-11-25 16:12:00,
2013-11-25 11:17:00,31.2,15.2,30.64,South,175,0.0,3.0,51,0.00,,,0.00,Wunderground v.1.15,2013-11-25 16:17:00,
2013-11-25 11:22:00,31.4,15.3,30.64,South,175,0.0,1.0,51,0.00,,,0.00,Wunderground v.1.15,2013-11-25 16:22:00,
2013-11-25 11:27:00,31.7,15.6,30.64,South,175,0.0,2.0,51,0.00,,,0.00,Wunderground v.1.15,2013-11-25 16:27:00,
2013-11-25 11:32:00,31.9,15.8,30.64,South,174,0.0,2.0,51,0.00,,,0.00,Wunderground v.1.15,2013-11-25 16:32:00,
2013-11-25 11:37:00,32.2,15.6,30.64,WSW,252,0.0,5.0,50,0.00,,,0.00,Wunderground v.1.15,2013-11-25 16:37:00,
2013-11-25 11:42:00,32.3,15.7,30.63,South,175,0.0,3.0,50,0.00,,,0.00,Wunderground v.1.15,2013-11-25 16:42:00,
2013-11-25 11:47:00,32.5,15.9,30.64,SSE,163,0.0,7.0,50,0.00,,,0.00,Wunderground v.1.15,2013-11-25 16:47:00,
2013-11-25 11:52:00,32.8,16.2,30.63,North,349,0.0,1.0,50,0.00,,,0.00,Wunderground v.1.15,2013-11-25 16:52:00,
2013-11-25 11:57:00,32.9,15.8,30.63,SSE,154,0.0,7.0,49,0.00,,,0.00,Wunderground v.1.15,2013-11-25 16:57:00,
2013-11-25 12:02:00,33.0,15.4,30.63,South,172,1.0,6.0,48,0.00,,,0.00,Wunderground v.1.15,2013-11-25 17:02:00,
2013-11-25 12:07:00,33.1,16.0,30.63,South,188,0.0,6.0,49,0.00,,,0.00,Wunderground v.1.15,2013-11-25 17:07:00,
2013-11-25 12:12:00,33.3,16.2,30.62,South,171,4.0,7.0,49,0.00,,,0.00,Wunderground v.1.15,2013-11-25 17:12:00,
2013-11-25 12:17:00,33.5,15.9,30.62,South,169,2.0,7.0,48,0.00,,,0.00,Wunderground v.1.15,2013-11-25 17:17:00,
2013-11-25 12:22:00,33.7,16.1,30.61,South,181,0.0,4.0,48,0.00,,,0.00,Wunderground v.1.15,2013-11-25 17:22:00,
2013-11-25 12:27:00,34.0,15.9,30.61,SSE,168,1.0,9.0,47,0.00,,,0.00,Wunderground v.1.15,2013-11-25 17:27:00,
2013-11-25 12:32:00,34.2,16.5,30.60,SSE,166,5.0,5.0,48,0.00,,,0.00,Wunderground v.1.15,2013-11-25 17:32:00,
2013-11-25 12:37:00,34.5,16.3,30.60,South,175,1.0,6.0,47,0.00,,,0.00,Wunderground v.1.15,2013-11-25 17:37:00,
2013-11-25 12:42:00,34.9,16.7,30.59,SSE,157,1.0,3.0,47,0.00,,,0.00,Wunderground v.1.15,2013-11-25 17:42:00,
2013-11-25 12:47:00,35.1,16.4,30.59,SW,236,0.0,6.0,46,0.00,,,0.00,Wunderground v.1.15,2013-11-25 17:47:00,
2013-11-25 12:52:00,35.3,16.6,30.59,South,174,2.0,6.0,46,0.00,,,0.00,Wunderground v.1.15,2013-11-25 17:52:00,
2013-11-25 12:57:00,35.4,16.6,30.58,NNE,24,0.0,10.0,46,0.00,,,0.00,Wunderground v.1.15,2013-11-25 17:57:00,
2013-11-25 13:02:00,35.6,16.3,30.58,South,173,0.0,7.0,45,0.00,,,0.00,Wunderground v.1.15,2013-11-25 18:02:00,
2013-11-25 13:08:00,35.7,16.4,30.58,ESE,117,3.0,11.0,45,0.00,,,0.00,Wunderground v.1.15,2013-11-25 18:08:00,
2013-11-25 13:13:00,35.8,16.5,30.58,South,180,2.0,4.0,45,0.00,,,0.00,Wunderground v.1.15,2013-11-25 18:13:00,
2013-11-25 13:18:00,36.0,17.2,30.58,ENE,66,1.0,5.0,46,0.00,,,0.00,Wunderground v.1.15,2013-11-25 18:18:00,
2013-11-25 13:23:00,36.2,16.9,30.58,South,174,0.0,4.0,45,0.00,,,0.00,Wunderground v.1.15,2013-11-25 18:23:00,
2013-11-25 13:28:00,36.4,17.6,30.58,South,175,2.0,4.0,46,0.00,,,0.00,Wunderground v.1.15,2013-11-25 18:28:00,
2013-11-25 13:33:00,36.6,16.7,30.57,South,169,0.0,5.0,44,0.00,,,0.00,Wunderground v.1.15,2013-11-25 18:33:00,
2013-11-25 13:38:00,36.8,17.4,30.58,South,182,0.0,5.0,45,0.00,,,0.00,Wunderground v.1.15,2013-11-25 18:38:00,
2013-11-25 13:43:00,36.9,17.5,30.58,South,182,0.0,1.0,45,0.00,,,0.00,Wunderground v.1.15,2013-11-25 18:43:00,
2013-11-25 13:48:00,37.0,16.5,30.57,South,184,1.0,4.0,43,0.00,,,0.00,Wunderground v.1.15,2013-11-25 18:48:00,
2013-11-25 13:53:00,37.1,17.2,30.56,South,175,0.0,4.0,44,0.00,,,0.00,Wunderground v.1.15,2013-11-25 18:53:00,
2013-11-25 13:58:00,37.3,16.8,30.56,North,360,0.0,4.0,43,0.00,,,0.00,Wunderground v.1.15,2013-11-25 18:58:00,
2013-11-25 14:03:00,37.4,16.4,30.56,South,169,0.0,5.0,42,0.00,,,0.00,Wunderground v.1.15,2013-11-25 19:03:00,
2013-11-25 14:08:00,37.5,17.0,30.56,SE,128,0.0,5.0,43,0.00,,,0.00,Wunderground v.1.15,2013-11-25 19:08:00,
2013-11-25 14:13:00,37.6,16.5,30.56,SSE,158,3.0,5.0,42,0.00,,,0.00,Wunderground v.1.15,2013-11-25 19:13:00,
2013-11-25 14:18:00,37.7,16.6,30.56,South,176,0.0,5.0,42,0.00,,,0.00,Wunderground v.1.15,2013-11-25 19:18:00,
2013-11-25 14:23:00,37.8,16.7,30.56,South,186,1.0,2.0,42,0.00,,,0.00,Wunderground v.1.15,2013-11-25 19:23:00,
2013-11-25 14:28:00,37.8,16.7,30.56,South,182,1.0,6.0,42,0.00,,,0.00,Wunderground v.1.15,2013-11-25 19:28:00,
2013-11-25 14:33:00,37.7,16.6,30.56,North,360,1.0,5.0,42,0.00,,,0.00,Wunderground v.1.15,2013-11-25 19:33:00,
2013-11-25 14:38:00,37.7,17.2,30.57,South,173,0.0,6.0,43,0.00,,,0.00,Wunderground v.1.15,2013-11-25 19:38:00,
2013-11-25 14:43:00,37.5,16.5,30.56,South,175,0.0,10.0,42,0.00,,,0.00,Wunderground v.1.15,2013-11-25 19:43:00,
2013-11-25 14:48:00,37.4,16.9,30.55,South,191,2.0,10.0,43,0.00,,,0.00,Wunderground v.1.15,2013-11-25 19:48:00,
2013-11-25 14:53:00,37.2,16.7,30.55,NNW,347,1.0,9.0,43,0.00,,,0.00,Wunderground v.1.15,2013-11-25 19:53:00,
2013-11-25 14:59:00,37.1,16.6,30.55,SW,218,0.0,9.0,43,0.00,,,0.00,Wunderground v.1.15,2013-11-25 19:59:00,
2013-11-25 15:04:00,37.0,16.0,30.55,South,172,0.0,6.0,42,0.00,,,0.00,Wunderground v.1.15,2013-11-25 20:04:00,
2013-11-25 15:09:00,36.9,15.9,30.55,SSW,192,0.0,6.0,42,0.00,,,0.00,Wunderground v.1.15,2013-11-25 20:09:00,
2013-11-25 15:14:00,36.8,16.4,30.55,SSE,165,0.0,3.0,43,0.00,,,0.00,Wunderground v.1.15,2013-11-25 20:14:00,
2013-11-25 15:19:00,36.8,16.4,30.55,South,178,0.0,3.0,43,0.00,,,0.00,Wunderground v.1.15,2013-11-25 20:19:00,
2013-11-25 15:24:00,36.7,16.8,30.55,South,180,0.0,2.0,44,0.00,,,0.00,Wunderground v.1.15,2013-11-25 20:24:00,
2013-11-25 15:29:00,36.6,17.2,30.54,South,180,0.0,2.0,45,0.00,,,0.00,Wunderground v.1.15,2013-11-25 20:29:00,
2013-11-25 15:34:00,36.5,16.6,30.55,South,180,0.0,1.0,44,0.00,,,0.00,Wunderground v.1.15,2013-11-25 20:34:00,
2013-11-25 15:39:00,36.4,16.5,30.55,South,180,0.0,3.0,44,0.00,,,0.00,Wunderground v.1.15,2013-11-25 20:39:00,
2013-11-25 15:44:00,36.3,17.0,30.56,South,173,0.0,3.0,45,0.00,,,0.00,Wunderground v.1.15,2013-11-25 20:44:00,
2013-11-25 15:49:00,36.3,17.0,30.56,SSE,167,0.0,5.0,45,0.00,,,0.00,Wunderground v.1.15,2013-11-25 20:49:00,
2013-11-25 15:54:00,36.2,17.4,30.56,SSE,167,0.0,1.0,46,0.00,,,0.00,Wunderground v.1.15,2013-11-25 20:54:00,
2013-11-25 15:59:00,36.2,17.4,30.55,SSE,167,0.0,2.0,46,0.00,,,0.00,Wunderground v.1.15,2013-11-25 20:59:00,
2013-11-25 16:04:00,36.2,17.9,30.55,ENE,57,1.0,2.0,47,0.00,,,0.00,Wunderground v.1.15,2013-11-25 21:04:00,
2013-11-25 16:09:00,36.0,17.7,30.55,ESE,103,0.0,2.0,47,0.00,,,0.00,Wunderground v.1.15,2013-11-25 21:09:00,
2013-11-25 16:14:00,36.0,17.7,30.55,NE,41,0.0,2.0,47,0.00,,,0.00,Wunderground v.1.15,2013-11-25 21:14:00,
2013-11-25 16:19:00,35.9,18.1,30.55,NE,43,0.0,2.0,48,0.00,,,0.00,Wunderground v.1.15,2013-11-25 21:19:00,
2013-11-25 16:24:00,35.8,18.0,30.54,NE,49,0.0,1.0,48,0.00,,,0.00,Wunderground v.1.15,2013-11-25 21:24:00,
2013-11-25 16:29:00,35.7,17.9,30.54,NE,49,1.0,1.0,48,0.00,,,0.00,Wunderground v.1.15,2013-11-25 21:29:00,
2013-11-25 16:34:00,35.7,17.9,30.54,SSE,163,0.0,2.0,48,0.00,,,0.00,Wunderground v.1.15,2013-11-25 21:34:00,
2013-11-25 16:39:00,35.6,17.8,30.54,SSE,163,0.0,2.0,48,0.00,,,0.00,Wunderground v.1.15,2013-11-25 21:39:00,
2013-11-25 16:44:00,35.5,18.2,30.53,SSE,163,0.0,1.0,49,0.00,,,0.00,Wunderground v.1.15,2013-11-25 21:44:00,
2013-11-25 16:50:00,35.5,18.2,30.53,SSE,163,0.0,1.0,49,0.00,,,0.00,Wunderground v.1.15,2013-11-25 21:50:00,
2013-11-25 16:55:00,35.5,18.7,30.53,SSE,163,0.0,1.0,50,0.00,,,0.00,Wunderground v.1.15,2013-11-25 21:55:00,
2013-11-25 17:00:00,35.5,18.7,30.54,SSE,163,0.0,1.0,50,0.00,,,0.00,Wunderground v.1.15,2013-11-25 22:00:00,
2013-11-25 17:05:00,35.5,18.2,30.54,SSE,163,0.0,1.0,49,0.00,,,0.00,Wunderground v.1.15,2013-11-25 22:05:00,
2013-11-25 17:10:00,35.5,18.2,30.54,SSE,163,0.0,1.0,49,0.00,,,0.00,Wunderground v.1.15,2013-11-25 22:10:00,
2013-11-25 17:15:00,35.5,18.7,30.54,SSE,163,0.0,1.0,50,0.00,,,0.00,Wunderground v.1.15,2013-11-25 22:15:00,
2013-11-25 17:20:00,35.4,18.6,30.55,SSE,163,0.0,1.0,50,0.00,,,0.00,Wunderground v.1.15,2013-11-25 22:20:00,
2013-11-25 17:25:00,35.5,18.7,30.54,SSE,163,0.0,1.0,50,0.00,,,0.00,Wunderground v.1.15,2013-11-25 22:25:00,
2013-11-25 17:30:00,35.5,19.1,30.55,SSE,163,2.0,2.0,51,0.00,,,0.00,Wunderground v.1.15,2013-11-25 22:30:00,
2013-11-25 17:35:00,35.4,19.0,30.55,SSE,163,0.0,1.0,51,0.00,,,0.00,Wunderground v.1.15,2013-11-25 22:35:00,
2013-11-25 17:40:00,35.4,19.0,30.55,ESE,115,0.0,2.0,51,0.00,,,0.00,Wunderground v.1.15,2013-11-25 22:40:00,
2013-11-25 17:45:00,35.3,19.4,30.54,SE,139,0.0,2.0,52,0.00,,,0.00,Wunderground v.1.15,2013-11-25 22:45:00,
2013-11-25 17:50:00,35.3,19.4,30.54,SE,139,0.0,0.0,52,0.00,,,0.00,Wunderground v.1.15,2013-11-25 22:50:00,
2013-11-25 17:55:00,35.1,18.8,30.54,SE,139,0.0,2.0,51,0.00,,,0.00,Wunderground v.1.15,2013-11-25 22:55:00,
2013-11-25 18:00:00,35.0,18.7,30.55,SE,140,0.0,0.0,51,0.00,,,0.00,Wunderground v.1.15,2013-11-25 23:00:00,
2013-11-25 18:05:00,35.0,19.1,30.55,SE,140,0.0,1.0,52,0.00,,,0.00,Wunderground v.1.15,2013-11-25 23:05:00,
2013-11-25 18:10:00,34.9,19.5,30.55,SSE,166,0.0,2.0,53,0.00,,,0.00,Wunderground v.1.15,2013-11-25 23:10:00,
2013-11-25 18:15:00,34.7,18.9,30.55,South,170,1.0,3.0,52,0.00,,,0.00,Wunderground v.1.15,2013-11-25 23:15:00,
2013-11-25 18:20:00,34.6,19.2,30.56,SSE,167,1.0,1.0,53,0.00,,,0.00,Wunderground v.1.15,2013-11-25 23:20:00,
2013-11-25 18:25:00,34.4,19.5,30.56,SSE,164,0.0,2.0,54,0.00,,,0.00,Wunderground v.1.15,2013-11-25 23:25:00,
2013-11-25 18:30:00,34.2,18.8,30.56,South,170,2.0,2.0,53,0.00,,,0.00,Wunderground v.1.15,2013-11-25 23:30:00,
2013-11-25 18:35:00,34.2,18.8,30.55,South,186,0.0,5.0,53,0.00,,,0.00,Wunderground v.1.15,2013-11-25 23:35:00,
2013-11-25 18:40:00,34.0,18.6,30.55,SSE,167,2.0,4.0,53,0.00,,,0.00,Wunderground v.1.15,2013-11-25 23:40:00,
2013-11-25 18:45:00,33.8,18.5,30.55,South,182,0.0,6.0,53,0.00,,,0.00,Wunderground v.1.15,2013-11-25 23:45:00,
2013-11-25 18:50:00,33.6,18.3,30.55,South,173,1.0,1.0,53,0.00,,,0.00,Wunderground v.1.15,2013-11-25 23:50:00,
2013-11-25 18:55:00,33.5,18.2,30.55,South,170,2.0,4.0,53,0.00,,,0.00,Wunderground v.1.15,2013-11-25 23:55:00,
2013-11-25 19:00:00,33.5,18.2,30.56,East,88,0.0,1.0,53,0.00,,,0.00,Wunderground v.1.15,2013-11-26 00:00:00,
2013-11-25 19:05:00,33.4,18.1,30.56,SSE,161,4.0,4.0,53,0.00,,,0.00,Wunderground v.1.15,2013-11-26 00:05:00,
2013-11-25 19:10:00,33.4,18.5,30.56,ESE,117,1.0,2.0,54,0.00,,,0.00,Wunderground v.1.15,2013-11-26 00:10:00,
2013-11-25 19:15:00,33.3,18.4,30.55,South,182,0.0,4.0,54,0.00,,,0.00,Wunderground v.1.15,2013-11-26 00:15:00,
2013-11-25 19:20:00,33.2,18.3,30.56,South,182,0.0,1.0,54,0.00,,,0.00,Wunderground v.1.15,2013-11-26 00:20:00,
2013-11-25 19:25:00,33.2,18.3,30.57,South,169,2.0,4.0,54,0.00,,,0.00,Wunderground v.1.15,2013-11-26 00:25:00,
2013-11-25 19:31:00,33.1,18.2,30.57,SSE,165,0.0,0.0,54,0.00,,,0.00,Wunderground v.1.15,2013-11-26 00:31:00,
2013-11-25 19:36:00,33.1,18.2,30.57,SSE,167,0.0,3.0,54,0.00,,,0.00,Wunderground v.1.15,2013-11-26 00:36:00,
2013-11-25 19:41:00,33.1,18.2,30.57,SSE,167,0.0,0.0,54,0.00,,,0.00,Wunderground v.1.15,2013-11-26 00:41:00,
2013-11-25 19:46:00,33.0,17.7,30.57,SE,140,0.0,1.0,53,0.00,,,0.00,Wunderground v.1.15,2013-11-26 00:46:00,
2013-11-25 19:51:00,33.0,17.7,30.56,South,176,0.0,0.0,53,0.00,,,0.00,Wunderground v.1.15,2013-11-26 00:51:00,
2013-11-25 19:56:00,33.0,17.7,30.56,South,176,0.0,1.0,53,0.00,,,0.00,Wunderground v.1.15,2013-11-26 00:56:00,
2013-11-25 20:01:00,33.0,17.7,30.55,South,169,0.0,4.0,53,0.00,,,0.00,Wunderground v.1.15,2013-11-26 01:01:00,
2013-11-25 20:06:00,32.9,17.6,30.55,SSE,165,1.0,4.0,53,0.00,,,0.00,Wunderground v.1.15,2013-11-26 01:06:00,
2013-11-25 20:11:00,32.9,17.6,30.54,SSE,164,0.0,1.0,53,0.00,,,0.00,Wunderground v.1.15,2013-11-26 01:11:00,
2013-11-25 20:16:00,32.9,17.6,30.54,South,188,0.0,4.0,53,0.00,,,0.00,Wunderground v.1.15,2013-11-26 01:16:00,
2013-11-25 20:21:00,32.9,18.1,30.53,South,188,0.0,0.0,54,0.00,,,0.00,Wunderground v.1.15,2013-11-26 01:21:00,
2013-11-25 20:26:00,33.0,18.1,30.52,NE,47,0.0,2.0,54,0.00,,,0.00,Wunderground v.1.15,2013-11-26 01:26:00,
2013-11-25 20:31:00,33.0,18.1,30.53,SE,139,0.0,0.0,54,0.00,,,0.00,Wunderground v.1.15,2013-11-26 01:31:00,
2013-11-25 20:36:00,33.0,18.1,30.53,SE,139,0.0,1.0,54,0.00,,,0.00,Wunderground v.1.15,2013-11-26 01:36:00,
2013-11-25 20:41:00,33.0,19.0,30.54,SE,139,0.0,1.0,56,0.00,,,0.00,Wunderground v.1.15,2013-11-26 01:41:00,
2013-11-25 20:46:00,33.1,18.7,30.54,SE,139,0.0,1.0,55,0.00,,,0.00,Wunderground v.1.15,2013-11-26 01:46:00,
2013-11-25 20:51:00,33.1,18.7,30.54,SE,139,1.0,1.0,55,0.00,,,0.00,Wunderground v.1.15,2013-11-26 01:51:00,
2013-11-25 20:56:00,33.1,19.1,30.53,SE,139,0.0,1.0,56,0.00,,,0.00,Wunderground v.1.15,2013-11-26 01:56:00,
2013-11-25 21:01:00,33.2,19.2,30.53,SE,139,0.0,0.0,56,0.00,,,0.00,Wunderground v.1.15,2013-11-26 02:01:00,
2013-11-25 21:06:00,33.2,19.2,30.53,SE,139,0.0,0.0,56,0.00,,,0.00,Wunderground v.1.15,2013-11-26 02:06:00,
2013-11-25 21:11:00,33.2,19.2,30.53,SE,139,0.0,0.0,56,0.00,,,0.00,Wunderground v.1.15,2013-11-26 02:11:00,
2013-11-25 21:16:00,33.3,19.7,30.53,SE,139,0.0,1.0,57,0.00,,,0.00,Wunderground v.1.15,2013-11-26 02:16:00,
2013-11-25 21:21:00,33.3,20.1,30.53,SE,139,0.0,0.0,58,0.00,,,0.00,Wunderground v.1.15,2013-11-26 02:21:00,
2013-11-25 21:26:00,33.3,20.9,30.54,SE,139,0.0,1.0,60,0.00,,,0.00,Wunderground v.1.15,2013-11-26 02:26:00,
2013-11-25 21:31:00,33.2,21.6,30.54,South,171,0.0,1.0,62,0.00,,,0.00,Wunderground v.1.15,2013-11-26 02:31:00,
2013-11-25 21:36:00,33.0,21.0,30.54,South,169,1.0,3.0,61,0.00,,,0.00,Wunderground v.1.15,2013-11-26 02:36:00,
2013-11-25 21:41:00,32.8,20.8,30.53,South,175,1.0,1.0,61,0.00,,,0.00,Wunderground v.1.15,2013-11-26 02:41:00,
2013-11-25 21:46:00,32.6,21.0,30.53,South,175,0.0,1.0,62,0.00,,,0.00,Wunderground v.1.15,2013-11-26 02:46:00,
2013-11-25 21:51:00,32.6,21.0,30.53,South,173,2.0,2.0,62,0.00,,,0.00,Wunderground v.1.15,2013-11-26 02:51:00,
2013-11-25 21:56:00,32.5,20.9,30.53,SSE,168,0.0,5.0,62,0.00,,,0.00,Wunderground v.1.15,2013-11-26 02:56:00,
2013-11-25 22:01:00,32.4,20.4,30.53,South,179,0.0,4.0,61,0.00,,,0.00,Wunderground v.1.15,2013-11-26 03:01:00,
2013-11-25 22:06:00,32.3,20.7,30.54,SSE,168,0.0,4.0,62,0.00,,,0.00,Wunderground v.1.15,2013-11-26 03:06:00,
2013-11-25 22:11:00,32.3,21.5,30.54,SSE,167,0.0,1.0,64,0.00,,,0.00,Wunderground v.1.15,2013-11-26 03:11:00,
2013-11-25 22:16:00,32.3,23.3,30.53,SSE,167,0.0,2.0,69,0.00,,,0.00,Wunderground v.1.15,2013-11-26 03:16:00,
2013-11-25 22:21:00,32.3,24.3,30.53,SSE,167,0.0,1.0,72,0.00,,,0.00,Wunderground v.1.15,2013-11-26 03:21:00,
2013-11-25 22:26:00,32.2,25.2,30.53,SSE,165,1.0,2.0,75,0.00,,,0.00,Wunderground v.1.15,2013-11-26 03:26:00,
2013-11-25 22:31:00,32.1,25.7,30.52,SSE,165,0.0,3.0,77,0.00,,,0.00,Wunderground v.1.15,2013-11-26 03:31:00,
2013-11-25 22:36:00,31.9,25.8,30.52,SSE,165,1.0,3.0,78,0.00,,,0.00,Wunderground v.1.15,2013-11-26 03:36:00,
2013-11-25 22:41:00,31.8,25.7,30.52,SSE,167,0.0,1.0,78,0.00,,,0.00,Wunderground v.1.15,2013-11-26 03:41:00,
2013-11-25 22:46:00,31.7,25.9,30.50,South,176,0.0,2.0,79,0.00,,,0.00,Wunderground v.1.15,2013-11-26 03:46:00,
2013-11-25 22:51:00,31.6,26.1,30.49,South,178,0.0,2.0,80,0.00,,,0.00,Wunderground v.1.15,2013-11-26 03:51:00,
2013-11-25 22:56:00,31.5,26.3,30.46,SSW,205,0.0,2.0,81,0.00,,,0.00,Wunderground v.1.15,2013-11-26 03:56:00,
2013-11-25 23:01:00,31.5,26.6,30.48,NW,319,0.0,1.0,82,0.00,,,0.00,Wunderground v.1.15,2013-11-26 04:01:00,
2013-11-25 23:06:00,31.4,26.5,30.48,NW,319,0.0,1.0,82,0.00,,,0.00,Wunderground v.1.15,2013-11-26 04:06:00,
2013-11-25 23:11:00,31.5,26.6,30.47,NW,319,0.0,0.0,82,0.00,,,0.00,Wunderground v.1.15,2013-11-26 04:11:00,
2013-11-25 23:16:00,31.4,26.5,30.48,NW,319,0.0,1.0,82,0.00,,,0.00,Wunderground v.1.15,2013-11-26 04:16:00,
2013-11-25 23:21:00,31.5,26.6,30.48,NW,319,0.0,0.0,82,0.00,,,0.00,Wunderground v.1.15,2013-11-26 04:21:00,
2013-11-25 23:26:00,31.5,26.3,30.48,NW,319,0.0,0.0,81,0.00,,,0.00,Wunderground v.1.15,2013-11-26 04:26:00,
2013-11-25 23:31:00,31.4,25.9,30.48,NW,319,0.0,0.0,80,0.00,,,0.00,Wunderground v.1.15,2013-11-26 04:31:00,
2013-11-25 23:36:00,31.3,26.1,30.47,NW,319,0.0,0.0,81,0.00,,,0.00,Wunderground v.1.15,2013-11-26 04:36:00,
2013-11-25 23:42:00,31.2,26.3,30.48,NW,319,0.0,0.0,82,0.00,,,0.00,Wunderground v.1.15,2013-11-26 04:42:00,
2013-11-25 23:47:00,31.2,26.6,30.48,NW,319,0.0,1.0,83,0.00,,,0.00,Wunderground v.1.15,2013-11-26 04:47:00,
2013-11-25 23:52:00,31.1,26.5,30.48,NW,319,0.0,0.0,83,0.00,,,0.00,Wunderground v.1.15,2013-11-26 04:52:00,
2013-11-25 23:57:00,31.0,26.7,30.49,NW,319,0.0,0.0,84,0.00,,,0.00,Wunderground v.1.15,2013-11-26 04:57:00,